sensor_id;sensor_type;location;lat;lon;timestamp;temperature;humidity
51825;DHT22;37879;52.986;6.282;2024-01-25T00:01:13;7.50;99.90
51825;DHT22;37879;52.986;6.282;2024-01-25T00:03:38;7.50;99.90
51825;DHT22;37879;52.986;6.282;2024-01-25T00:06:07;7.40;99.90
51825;DHT22;37879;52.986;6.282;2024-01-25T00:08:33;7.40;99.90
51825;DHT22;37879;52.986;6.282;2024-01-25T00:11:03;7.30;99.90
51825;DHT22;37879;52.986;6.282;2024-01-25T00:13:29;7.20;99.90
51825;DHT22;37879;52.986;6.282;2024-01-25T00:15:55;7.20;99.90
51825;DHT22;37879;52.986;6.282;2024-01-25T00:18:21;7.10;99.90
51825;DHT22;37879;52.986;6.282;2024-01-25T00:20:47;7.10;99.90
51825;DHT22;37879;52.986;6.282;2024-01-25T00:23:12;6.90;99.90
51825;DHT22;37879;52.986;6.282;2024-01-25T00:25:38;7.00;99.90
51825;DHT22;37879;52.986;6.282;2024-01-25T00:28:04;6.90;99.90
51825;DHT22;37879;52.986;6.282;2024-01-25T00:30:30;6.90;99.90
51825;DHT22;37879;52.986;6.282;2024-01-25T00:32:59;6.90;99.90
51825;DHT22;37879;52.986;6.282;2024-01-25T00:35:25;6.90;99.90
51825;DHT22;37879;52.986;6.282;2024-01-25T00:37:51;6.90;99.90
51825;DHT22;37879;52.986;6.282;2024-01-25T00:40:17;6.80;99.90
51825;DHT22;37879;52.986;6.282;2024-01-25T00:42:45;6.80;99.90
51825;DHT22;37879;52.986;6.282;2024-01-25T00:45:19;6.70;99.90
51825;DHT22;37879;52.986;6.282;2024-01-25T00:47:45;6.70;99.90
51825;DHT22;37879;52.986;6.282;2024-01-25T00:50:11;6.70;99.90
51825;DHT22;37879;52.986;6.282;2024-01-25T00:52:37;6.60;99.90
51825;DHT22;37879;52.986;6.282;2024-01-25T00:55:03;6.60;99.90
51825;DHT22;37879;52.986;6.282;2024-01-25T00:57:30;6.60;99.90
51825;DHT22;37879;52.986;6.282;2024-01-25T00:59:56;6.60;99.90
51825;DHT22;37879;52.986;6.282;2024-01-25T01:02:22;6.50;99.90
51825;DHT22;37879;52.986;6.282;2024-01-25T01:04:48;6.50;99.90
51825;DHT22;37879;52.986;6.282;2024-01-25T01:07:15;6.50;99.90
51825;DHT22;37879;52.986;6.282;2024-01-25T01:09:40;6.50;99.90
51825;DHT22;37879;52.986;6.282;2024-01-25T01:12:07;6.50;99.90
51825;DHT22;37879;52.986;6.282;2024-01-25T01:14:33;6.40;99.90
51825;DHT22;37879;52.986;6.282;2024-01-25T01:16:58;6.40;99.90
51825;DHT22;37879;52.986;6.282;2024-01-25T01:19:24;6.40;99.90
51825;DHT22;37879;52.986;6.282;2024-01-25T01:21:50;6.40;99.90
51825;DHT22;37879;52.986;6.282;2024-01-25T01:24:15;6.40;99.90
51825;DHT22;37879;52.986;6.282;2024-01-25T01:26:41;6.30;99.90
51825;DHT22;37879;52.986;6.282;2024-01-25T01:29:07;6.30;99.90
51825;DHT22;37879;52.986;6.282;2024-01-25T01:31:33;6.30;99.90
51825;DHT22;37879;52.986;6.282;2024-01-25T01:33:59;6.20;99.90
51825;DHT22;37879;52.986;6.282;2024-01-25T01:36:26;6.20;99.90
51825;DHT22;37879;52.986;6.282;2024-01-25T01:38:52;6.20;99.90
51825;DHT22;37879;52.986;6.282;2024-01-25T01:41:17;6.20;99.90
51825;DHT22;37879;52.986;6.282;2024-01-25T01:43:43;6.20;99.90
51825;DHT22;37879;52.986;6.282;2024-01-25T01:48:53;6.10;99.90
51825;DHT22;37879;52.986;6.282;2024-01-25T01:51:19;6.00;99.90
51825;DHT22;37879;52.986;6.282;2024-01-25T01:53:46;6.00;99.90
51825;DHT22;37879;52.986;6.282;2024-01-25T01:56:12;6.00;99.90
51825;DHT22;37879;52.986;6.282;2024-01-25T01:58:38;5.90;99.90
51825;DHT22;37879;52.986;6.282;2024-01-25T02:01:05;6.00;99.90
51825;DHT22;37879;52.986;6.282;2024-01-25T02:03:30;5.90;99.90
51825;DHT22;37879;52.986;6.282;2024-01-25T02:05:56;5.90;99.90
51825;DHT22;37879;52.986;6.282;2024-01-25T02:08:28;5.90;99.90
51825;DHT22;37879;52.986;6.282;2024-01-25T02:10:54;5.90;99.90
51825;DHT22;37879;52.986;6.282;2024-01-25T02:13:21;5.90;99.90
51825;DHT22;37879;52.986;6.282;2024-01-25T02:15:46;5.80;99.90
51825;DHT22;37879;52.986;6.282;2024-01-25T02:18:12;5.80;99.90
51825;DHT22;37879;52.986;6.282;2024-01-25T02:20:38;5.80;99.90
51825;DHT22;37879;52.986;6.282;2024-01-25T02:23:04;5.90;99.90
51825;DHT22;37879;52.986;6.282;2024-01-25T02:25:29;5.80;99.90
51825;DHT22;37879;52.986;6.282;2024-01-25T02:27:55;5.80;99.90
51825;DHT22;37879;52.986;6.282;2024-01-25T02:30:21;5.80;99.90
51825;DHT22;37879;52.986;6.282;2024-01-25T02:32:46;5.70;99.90
51825;DHT22;37879;52.986;6.282;2024-01-25T02:35:12;5.60;99.90
51825;DHT22;37879;52.986;6.282;2024-01-25T02:37:38;5.50;99.90
51825;DHT22;37879;52.986;6.282;2024-01-25T02:40:04;5.60;99.90
51825;DHT22;37879;52.986;6.282;2024-01-25T02:42:30;5.60;99.90
51825;DHT22;37879;52.986;6.282;2024-01-25T02:44:56;5.50;99.90
51825;DHT22;37879;52.986;6.282;2024-01-25T02:47:21;5.50;99.90
51825;DHT22;37879;52.986;6.282;2024-01-25T02:49:47;5.50;99.90
51825;DHT22;37879;52.986;6.282;2024-01-25T02:52:13;5.40;99.90
51825;DHT22;37879;52.986;6.282;2024-01-25T02:54:39;5.40;99.90
51825;DHT22;37879;52.986;6.282;2024-01-25T02:57:05;5.80;99.90
51825;DHT22;37879;52.986;6.282;2024-01-25T02:59:31;5.40;99.90
51825;DHT22;37879;52.986;6.282;2024-01-25T03:01:57;5.40;99.90
51825;DHT22;37879;52.986;6.282;2024-01-25T03:04:23;5.40;99.90
51825;DHT22;37879;52.986;6.282;2024-01-25T03:06:48;5.40;99.90
51825;DHT22;37879;52.986;6.282;2024-01-25T03:09:14;5.40;99.90
51825;DHT22;37879;52.986;6.282;2024-01-25T03:11:40;5.40;99.90
51825;DHT22;37879;52.986;6.282;2024-01-25T03:14:06;5.50;99.90
51825;DHT22;37879;52.986;6.282;2024-01-25T03:16:31;5.50;99.90
51825;DHT22;37879;52.986;6.282;2024-01-25T03:18:57;6.50;99.90
51825;DHT22;37879;52.986;6.282;2024-01-25T03:21:23;5.50;99.90
51825;DHT22;37879;52.986;6.282;2024-01-25T03:23:49;5.50;99.90
51825;DHT22;37879;52.986;6.282;2024-01-25T03:26:15;5.40;99.90
51825;DHT22;37879;52.986;6.282;2024-01-25T03:28:40;5.30;99.90
51825;DHT22;37879;52.986;6.282;2024-01-25T03:31:06;5.30;99.90
51825;DHT22;37879;52.986;6.282;2024-01-25T03:33:32;5.30;99.90
51825;DHT22;37879;52.986;6.282;2024-01-25T03:36:02;5.30;99.90
51825;DHT22;37879;52.986;6.282;2024-01-25T03:38:28;5.20;99.90
51825;DHT22;37879;52.986;6.282;2024-01-25T03:40:54;5.20;99.90
51825;DHT22;37879;52.986;6.282;2024-01-25T03:43:22;5.20;99.90
51825;DHT22;37879;52.986;6.282;2024-01-25T03:45:49;5.20;99.90
51825;DHT22;37879;52.986;6.282;2024-01-25T03:48:15;5.10;99.90
51825;DHT22;37879;52.986;6.282;2024-01-25T03:50:41;5.10;99.90
51825;DHT22;37879;52.986;6.282;2024-01-25T03:53:06;5.10;99.90
51825;DHT22;37879;52.986;6.282;2024-01-25T03:55:32;5.10;99.90
51825;DHT22;37879;52.986;6.282;2024-01-25T03:57:58;5.00;99.90
51825;DHT22;37879;52.986;6.282;2024-01-25T04:00:24;5.00;99.90
51825;DHT22;37879;52.986;6.282;2024-01-25T04:02:50;4.90;99.90
51825;DHT22;37879;52.986;6.282;2024-01-25T04:05:16;4.90;99.90
51825;DHT22;37879;52.986;6.282;2024-01-25T04:07:42;4.80;99.90
51825;DHT22;37879;52.986;6.282;2024-01-25T04:10:07;4.80;99.90
51825;DHT22;37879;52.986;6.282;2024-01-25T04:12:33;4.70;99.90
51825;DHT22;37879;52.986;6.282;2024-01-25T04:14:59;4.70;99.90
51825;DHT22;37879;52.986;6.282;2024-01-25T04:17:25;4.60;99.90
51825;DHT22;37879;52.986;6.282;2024-01-25T04:19:51;4.60;99.90
51825;DHT22;37879;52.986;6.282;2024-01-25T04:22:16;4.60;99.90
51825;DHT22;37879;52.986;6.282;2024-01-25T04:24:42;4.60;99.90
51825;DHT22;37879;52.986;6.282;2024-01-25T04:27:10;4.70;99.90
51825;DHT22;37879;52.986;6.282;2024-01-25T04:29:39;4.50;99.90
51825;DHT22;37879;52.986;6.282;2024-01-25T04:32:07;4.50;99.90
51825;DHT22;37879;52.986;6.282;2024-01-25T04:34:33;4.50;99.90
51825;DHT22;37879;52.986;6.282;2024-01-25T04:36:59;4.50;99.90
51825;DHT22;37879;52.986;6.282;2024-01-25T04:39:24;4.40;99.90
51825;DHT22;37879;52.986;6.282;2024-01-25T04:41:50;4.40;99.90
51825;DHT22;37879;52.986;6.282;2024-01-25T04:44:15;4.40;99.90
51825;DHT22;37879;52.986;6.282;2024-01-25T04:46:42;4.30;99.90
51825;DHT22;37879;52.986;6.282;2024-01-25T04:49:07;4.30;99.90
51825;DHT22;37879;52.986;6.282;2024-01-25T04:51:33;4.30;99.90
51825;DHT22;37879;52.986;6.282;2024-01-25T04:53:59;4.50;99.90
51825;DHT22;37879;52.986;6.282;2024-01-25T04:56:24;4.20;99.90
51825;DHT22;37879;52.986;6.282;2024-01-25T04:58:50;4.20;99.90
51825;DHT22;37879;52.986;6.282;2024-01-25T05:01:16;4.20;99.90
51825;DHT22;37879;52.986;6.282;2024-01-25T05:03:42;4.20;99.90
51825;DHT22;37879;52.986;6.282;2024-01-25T05:06:08;4.30;99.90
51825;DHT22;37879;52.986;6.282;2024-01-25T05:08:33;4.30;99.90
51825;DHT22;37879;52.986;6.282;2024-01-25T05:11:00;4.30;99.90
51825;DHT22;37879;52.986;6.282;2024-01-25T05:13:25;4.30;99.90
51825;DHT22;37879;52.986;6.282;2024-01-25T05:15:51;4.30;99.90
51825;DHT22;37879;52.986;6.282;2024-01-25T05:18:17;4.30;99.90
51825;DHT22;37879;52.986;6.282;2024-01-25T05:20:42;4.30;99.90
51825;DHT22;37879;52.986;6.282;2024-01-25T05:23:08;4.30;99.90
51825;DHT22;37879;52.986;6.282;2024-01-25T05:25:34;4.30;99.90
51825;DHT22;37879;52.986;6.282;2024-01-25T05:27:59;4.30;99.90
51825;DHT22;37879;52.986;6.282;2024-01-25T05:30:26;4.20;99.90
51825;DHT22;37879;52.986;6.282;2024-01-25T05:32:52;4.20;99.90
51825;DHT22;37879;52.986;6.282;2024-01-25T05:35:19;4.20;99.90
51825;DHT22;37879;52.986;6.282;2024-01-25T05:37:45;4.20;99.90
51825;DHT22;37879;52.986;6.282;2024-01-25T05:40:11;4.20;99.90
51825;DHT22;37879;52.986;6.282;2024-01-25T05:42:38;4.10;99.90
51825;DHT22;37879;52.986;6.282;2024-01-25T05:45:04;4.10;99.90
51825;DHT22;37879;52.986;6.282;2024-01-25T05:47:30;4.10;99.90
51825;DHT22;37879;52.986;6.282;2024-01-25T05:49:57;4.40;99.90
51825;DHT22;37879;52.986;6.282;2024-01-25T05:52:23;4.10;99.90
51825;DHT22;37879;52.986;6.282;2024-01-25T05:54:50;4.10;99.90
51825;DHT22;37879;52.986;6.282;2024-01-25T05:57:15;4.10;99.90
51825;DHT22;37879;52.986;6.282;2024-01-25T05:59:42;4.10;99.90
51825;DHT22;37879;52.986;6.282;2024-01-25T06:02:08;3.90;99.90
51825;DHT22;37879;52.986;6.282;2024-01-25T06:04:34;3.90;99.90
51825;DHT22;37879;52.986;6.282;2024-01-25T06:07:00;3.80;99.90
51825;DHT22;37879;52.986;6.282;2024-01-25T06:09:26;3.80;99.90
51825;DHT22;37879;52.986;6.282;2024-01-25T06:11:52;3.80;99.90
51825;DHT22;37879;52.986;6.282;2024-01-25T06:14:18;3.70;99.90
51825;DHT22;37879;52.986;6.282;2024-01-25T06:16:43;3.70;99.90
51825;DHT22;37879;52.986;6.282;2024-01-25T06:19:10;4.00;99.90
51825;DHT22;37879;52.986;6.282;2024-01-25T06:21:36;3.60;99.90
51825;DHT22;37879;52.986;6.282;2024-01-25T06:24:06;3.60;99.90
51825;DHT22;37879;52.986;6.282;2024-01-25T06:26:32;3.60;99.90
51825;DHT22;37879;52.986;6.282;2024-01-25T06:28:58;3.60;99.90
51825;DHT22;37879;52.986;6.282;2024-01-25T06:31:25;3.60;99.90
51825;DHT22;37879;52.986;6.282;2024-01-25T06:33:51;3.50;99.90
51825;DHT22;37879;52.986;6.282;2024-01-25T06:36:24;3.40;99.90
51825;DHT22;37879;52.986;6.282;2024-01-25T06:38:49;5.00;99.90
51825;DHT22;37879;52.986;6.282;2024-01-25T06:41:15;3.30;99.90
51825;DHT22;37879;52.986;6.282;2024-01-25T06:43:41;3.30;99.90
51825;DHT22;37879;52.986;6.282;2024-01-25T06:46:07;3.30;99.90
51825;DHT22;37879;52.986;6.282;2024-01-25T06:48:33;3.20;99.90
51825;DHT22;37879;52.986;6.282;2024-01-25T06:50:59;3.20;99.90
51825;DHT22;37879;52.986;6.282;2024-01-25T06:53:27;3.10;99.90
51825;DHT22;37879;52.986;6.282;2024-01-25T06:55:53;3.10;99.90
51825;DHT22;37879;52.986;6.282;2024-01-25T06:58:18;3.10;99.90
51825;DHT22;37879;52.986;6.282;2024-01-25T07:00:44;3.10;99.90
51825;DHT22;37879;52.986;6.282;2024-01-25T07:03:12;3.00;99.90
51825;DHT22;37879;52.986;6.282;2024-01-25T07:05:38;2.90;99.90
51825;DHT22;37879;52.986;6.282;2024-01-25T07:08:04;3.00;99.90
51825;DHT22;37879;52.986;6.282;2024-01-25T07:10:30;3.00;99.90
51825;DHT22;37879;52.986;6.282;2024-01-25T07:12:56;3.00;99.90
51825;DHT22;37879;52.986;6.282;2024-01-25T07:15:22;3.00;99.90
51825;DHT22;37879;52.986;6.282;2024-01-25T07:17:47;2.90;99.90
51825;DHT22;37879;52.986;6.282;2024-01-25T07:20:13;3.00;99.90
51825;DHT22;37879;52.986;6.282;2024-01-25T07:22:40;2.90;99.90
51825;DHT22;37879;52.986;6.282;2024-01-25T07:25:06;3.00;99.90
51825;DHT22;37879;52.986;6.282;2024-01-25T07:27:32;3.00;99.90
51825;DHT22;37879;52.986;6.282;2024-01-25T07:29:57;3.10;99.90
51825;DHT22;37879;52.986;6.282;2024-01-25T07:32:23;3.10;99.90
51825;DHT22;37879;52.986;6.282;2024-01-25T07:34:52;3.70;99.90
51825;DHT22;37879;52.986;6.282;2024-01-25T07:37:19;3.20;99.90
51825;DHT22;37879;52.986;6.282;2024-01-25T07:39:45;3.30;99.90
51825;DHT22;37879;52.986;6.282;2024-01-25T07:42:11;3.20;99.90
51825;DHT22;37879;52.986;6.282;2024-01-25T07:44:38;3.20;99.90
51825;DHT22;37879;52.986;6.282;2024-01-25T07:47:04;3.10;99.90
51825;DHT22;37879;52.986;6.282;2024-01-25T07:49:30;3.10;99.90
51825;DHT22;37879;52.986;6.282;2024-01-25T07:51:56;3.40;99.90
51825;DHT22;37879;52.986;6.282;2024-01-25T07:54:22;3.10;99.90
51825;DHT22;37879;52.986;6.282;2024-01-25T07:56:48;3.10;99.90
51825;DHT22;37879;52.986;6.282;2024-01-25T07:59:14;3.10;99.90
51825;DHT22;37879;52.986;6.282;2024-01-25T08:01:40;4.50;99.90
51825;DHT22;37879;52.986;6.282;2024-01-25T08:04:06;3.20;99.90
51825;DHT22;37879;52.986;6.282;2024-01-25T08:06:32;3.30;99.90
51825;DHT22;37879;52.986;6.282;2024-01-25T08:08:58;3.40;99.90
51825;DHT22;37879;52.986;6.282;2024-01-25T08:11:24;3.50;99.90
51825;DHT22;37879;52.986;6.282;2024-01-25T08:13:50;3.40;99.90
51825;DHT22;37879;52.986;6.282;2024-01-25T08:16:16;3.50;99.90
51825;DHT22;37879;52.986;6.282;2024-01-25T08:18:48;3.60;99.90
51825;DHT22;37879;52.986;6.282;2024-01-25T08:21:14;3.90;99.90
51825;DHT22;37879;52.986;6.282;2024-01-25T08:23:40;3.70;99.90
51825;DHT22;37879;52.986;6.282;2024-01-25T08:26:06;4.20;99.90
51825;DHT22;37879;52.986;6.282;2024-01-25T08:28:39;3.70;99.90
51825;DHT22;37879;52.986;6.282;2024-01-25T08:31:05;3.70;99.90
51825;DHT22;37879;52.986;6.282;2024-01-25T08:33:31;3.80;99.90
51825;DHT22;37879;52.986;6.282;2024-01-25T08:35:57;4.20;99.90
51825;DHT22;37879;52.986;6.282;2024-01-25T08:38:23;3.80;99.90
51825;DHT22;37879;52.986;6.282;2024-01-25T08:40:48;3.80;99.90
51825;DHT22;37879;52.986;6.282;2024-01-25T08:43:14;3.90;99.90
51825;DHT22;37879;52.986;6.282;2024-01-25T08:45:40;3.90;99.90
51825;DHT22;37879;52.986;6.282;2024-01-25T08:48:06;3.90;99.90
51825;DHT22;37879;52.986;6.282;2024-01-25T08:50:34;4.00;99.90
51825;DHT22;37879;52.986;6.282;2024-01-25T08:53:01;4.30;99.90
51825;DHT22;37879;52.986;6.282;2024-01-25T08:55:26;4.00;99.90
51825;DHT22;37879;52.986;6.282;2024-01-25T08:57:52;4.00;99.90
51825;DHT22;37879;52.986;6.282;2024-01-25T09:00:18;4.10;99.90
51825;DHT22;37879;52.986;6.282;2024-01-25T09:02:44;4.10;99.90
51825;DHT22;37879;52.986;6.282;2024-01-25T09:05:10;4.10;99.90
51825;DHT22;37879;52.986;6.282;2024-01-25T09:07:36;4.10;99.90
51825;DHT22;37879;52.986;6.282;2024-01-25T09:10:02;3.90;99.90
51825;DHT22;37879;52.986;6.282;2024-01-25T09:12:30;4.20;99.90
51825;DHT22;37879;52.986;6.282;2024-01-25T09:14:55;4.30;99.90
51825;DHT22;37879;52.986;6.282;2024-01-25T09:17:21;4.30;99.90
51825;DHT22;37879;52.986;6.282;2024-01-25T09:19:50;4.30;99.90
51825;DHT22;37879;52.986;6.282;2024-01-25T09:22:17;4.40;99.90
51825;DHT22;37879;52.986;6.282;2024-01-25T09:24:45;4.40;99.90
51825;DHT22;37879;52.986;6.282;2024-01-25T09:27:12;4.50;99.90
51825;DHT22;37879;52.986;6.282;2024-01-25T09:29:41;4.70;99.90
51825;DHT22;37879;52.986;6.282;2024-01-25T09:32:07;4.60;99.90
51825;DHT22;37879;52.986;6.282;2024-01-25T09:34:38;4.60;99.90
51825;DHT22;37879;52.986;6.282;2024-01-25T09:37:04;4.60;99.90
51825;DHT22;37879;52.986;6.282;2024-01-25T09:39:31;4.70;99.90
51825;DHT22;37879;52.986;6.282;2024-01-25T09:41:56;4.80;99.90
51825;DHT22;37879;52.986;6.282;2024-01-25T09:44:22;5.30;99.90
51825;DHT22;37879;52.986;6.282;2024-01-25T09:46:49;4.80;99.90
51825;DHT22;37879;52.986;6.282;2024-01-25T09:49:16;4.80;99.90
51825;DHT22;37879;52.986;6.282;2024-01-25T09:51:43;4.90;99.90
51825;DHT22;37879;52.986;6.282;2024-01-25T09:54:09;4.90;99.90
51825;DHT22;37879;52.986;6.282;2024-01-25T09:56:36;4.90;99.90
51825;DHT22;37879;52.986;6.282;2024-01-25T09:59:03;4.90;99.90
51825;DHT22;37879;52.986;6.282;2024-01-25T10:01:30;4.90;99.90
51825;DHT22;37879;52.986;6.282;2024-01-25T10:03:56;4.90;99.90
51825;DHT22;37879;52.986;6.282;2024-01-25T10:06:22;4.90;99.90
51825;DHT22;37879;52.986;6.282;2024-01-25T10:08:48;5.00;99.90
51825;DHT22;37879;52.986;6.282;2024-01-25T10:11:14;5.00;99.90
51825;DHT22;37879;52.986;6.282;2024-01-25T10:13:41;5.00;99.90
51825;DHT22;37879;52.986;6.282;2024-01-25T10:16:10;5.00;99.90
51825;DHT22;37879;52.986;6.282;2024-01-25T10:18:36;5.00;99.90
51825;DHT22;37879;52.986;6.282;2024-01-25T10:21:03;5.00;99.90
51825;DHT22;37879;52.986;6.282;2024-01-25T10:23:28;5.00;99.90
51825;DHT22;37879;52.986;6.282;2024-01-25T10:25:56;5.00;99.90
51825;DHT22;37879;52.986;6.282;2024-01-25T10:28:23;5.00;99.90
51825;DHT22;37879;52.986;6.282;2024-01-25T10:30:50;5.00;99.90
51825;DHT22;37879;52.986;6.282;2024-01-25T10:33:17;5.10;99.90
51825;DHT22;37879;52.986;6.282;2024-01-25T10:35:45;6.60;99.90
51825;DHT22;37879;52.986;6.282;2024-01-25T10:38:17;5.20;99.90
51825;DHT22;37879;52.986;6.282;2024-01-25T10:40:43;5.20;99.90
51825;DHT22;37879;52.986;6.282;2024-01-25T10:43:09;5.20;99.90
51825;DHT22;37879;52.986;6.282;2024-01-25T10:45:35;5.20;99.90
51825;DHT22;37879;52.986;6.282;2024-01-25T10:48:01;5.30;99.90
51825;DHT22;37879;52.986;6.282;2024-01-25T10:50:27;5.40;99.90
51825;DHT22;37879;52.986;6.282;2024-01-25T10:52:53;5.50;99.90
51825;DHT22;37879;52.986;6.282;2024-01-25T10:55:19;5.60;99.90
51825;DHT22;37879;52.986;6.282;2024-01-25T10:57:46;5.70;99.90
51825;DHT22;37879;52.986;6.282;2024-01-25T11:00:15;5.70;99.90
51825;DHT22;37879;52.986;6.282;2024-01-25T11:02:41;5.80;99.90
51825;DHT22;37879;52.986;6.282;2024-01-25T11:05:15;5.90;99.90
51825;DHT22;37879;52.986;6.282;2024-01-25T11:07:48;6.00;99.90
51825;DHT22;37879;52.986;6.282;2024-01-25T11:10:18;6.20;99.90
51825;DHT22;37879;52.986;6.282;2024-01-25T11:13:01;6.20;99.90
51825;DHT22;37879;52.986;6.282;2024-01-25T11:15:35;6.40;99.90
51825;DHT22;37879;52.986;6.282;2024-01-25T11:18:03;6.50;99.90
51825;DHT22;37879;52.986;6.282;2024-01-25T11:20:29;6.50;99.90
51825;DHT22;37879;52.986;6.282;2024-01-25T11:25:22;6.70;99.90
51825;DHT22;37879;52.986;6.282;2024-01-25T11:27:49;6.80;99.90
51825;DHT22;37879;52.986;6.282;2024-01-25T11:30:18;7.40;99.90
51825;DHT22;37879;52.986;6.282;2024-01-25T11:32:49;7.00;99.90
51825;DHT22;37879;52.986;6.282;2024-01-25T11:35:15;7.00;99.90
51825;DHT22;37879;52.986;6.282;2024-01-25T11:37:45;7.10;99.90
51825;DHT22;37879;52.986;6.282;2024-01-25T11:40:12;7.10;99.90
51825;DHT22;37879;52.986;6.282;2024-01-25T11:42:39;7.00;99.90
51825;DHT22;37879;52.986;6.282;2024-01-25T11:45:08;7.00;99.90
51825;DHT22;37879;52.986;6.282;2024-01-25T11:47:35;7.00;99.90
51825;DHT22;37879;52.986;6.282;2024-01-25T11:50:02;6.90;99.90
51825;DHT22;37879;52.986;6.282;2024-01-25T11:52:28;6.90;99.90
51825;DHT22;37879;52.986;6.282;2024-01-25T11:54:54;6.90;99.90
51825;DHT22;37879;52.986;6.282;2024-01-25T11:57:20;6.90;99.90
51825;DHT22;37879;52.986;6.282;2024-01-25T11:59:47;6.90;99.90
51825;DHT22;37879;52.986;6.282;2024-01-25T12:02:13;6.90;99.90
51825;DHT22;37879;52.986;6.282;2024-01-25T12:04:42;6.90;99.90
51825;DHT22;37879;52.986;6.282;2024-01-25T12:07:07;7.00;99.90
51825;DHT22;37879;52.986;6.282;2024-01-25T12:09:33;6.90;99.90
51825;DHT22;37879;52.986;6.282;2024-01-25T12:12:02;7.00;99.90
51825;DHT22;37879;52.986;6.282;2024-01-25T12:14:30;7.10;99.90
51825;DHT22;37879;52.986;6.282;2024-01-25T12:16:56;7.10;99.90
51825;DHT22;37879;52.986;6.282;2024-01-25T12:19:22;7.20;99.90
51825;DHT22;37879;52.986;6.282;2024-01-25T12:21:48;7.20;99.90
51825;DHT22;37879;52.986;6.282;2024-01-25T12:24:14;7.30;99.90
51825;DHT22;37879;52.986;6.282;2024-01-25T12:26:42;7.30;99.90
51825;DHT22;37879;52.986;6.282;2024-01-25T12:29:07;7.30;99.90
51825;DHT22;37879;52.986;6.282;2024-01-25T12:31:36;7.40;99.90
51825;DHT22;37879;52.986;6.282;2024-01-25T12:34:02;7.40;99.90
51825;DHT22;37879;52.986;6.282;2024-01-25T12:36:28;7.50;99.90
51825;DHT22;37879;52.986;6.282;2024-01-25T12:38:53;7.40;99.90
51825;DHT22;37879;52.986;6.282;2024-01-25T12:41:19;7.50;99.90
51825;DHT22;37879;52.986;6.282;2024-01-25T12:43:45;7.60;99.90
51825;DHT22;37879;52.986;6.282;2024-01-25T12:46:11;7.60;99.90
51825;DHT22;37879;52.986;6.282;2024-01-25T12:48:36;7.60;99.90
51825;DHT22;37879;52.986;6.282;2024-01-25T12:51:02;7.70;99.90
51825;DHT22;37879;52.986;6.282;2024-01-25T12:53:28;7.70;99.90
51825;DHT22;37879;52.986;6.282;2024-01-25T12:55:53;7.70;99.90
51825;DHT22;37879;52.986;6.282;2024-01-25T12:58:19;7.70;99.90
51825;DHT22;37879;52.986;6.282;2024-01-25T13:00:45;7.80;99.90
51825;DHT22;37879;52.986;6.282;2024-01-25T13:03:11;7.80;99.90
51825;DHT22;37879;52.986;6.282;2024-01-25T13:05:37;7.90;99.90
51825;DHT22;37879;52.986;6.282;2024-01-25T13:08:05;7.80;99.90
51825;DHT22;37879;52.986;6.282;2024-01-25T13:10:31;7.90;99.90
51825;DHT22;37879;52.986;6.282;2024-01-25T13:12:57;7.90;99.90
51825;DHT22;37879;52.986;6.282;2024-01-25T13:15:23;7.90;99.90
51825;DHT22;37879;52.986;6.282;2024-01-25T13:17:49;8.00;99.90
51825;DHT22;37879;52.986;6.282;2024-01-25T13:20:15;7.90;99.90
51825;DHT22;37879;52.986;6.282;2024-01-25T13:22:41;8.00;99.90
51825;DHT22;37879;52.986;6.282;2024-01-25T13:25:07;8.00;99.90
51825;DHT22;37879;52.986;6.282;2024-01-25T13:27:35;8.00;99.90
51825;DHT22;37879;52.986;6.282;2024-01-25T13:30:01;8.00;99.90
51825;DHT22;37879;52.986;6.282;2024-01-25T13:32:27;8.00;99.90
51825;DHT22;37879;52.986;6.282;2024-01-25T13:34:52;8.00;99.90
51825;DHT22;37879;52.986;6.282;2024-01-25T13:37:18;8.00;99.90
51825;DHT22;37879;52.986;6.282;2024-01-25T13:39:44;7.90;99.90
51825;DHT22;37879;52.986;6.282;2024-01-25T13:42:10;7.90;99.90
51825;DHT22;37879;52.986;6.282;2024-01-25T13:44:35;7.90;99.90
51825;DHT22;37879;52.986;6.282;2024-01-25T13:47:04;7.90;99.90
51825;DHT22;37879;52.986;6.282;2024-01-25T13:49:29;7.90;99.90
51825;DHT22;37879;52.986;6.282;2024-01-25T13:51:55;7.90;99.90
51825;DHT22;37879;52.986;6.282;2024-01-25T13:54:21;7.90;99.90
51825;DHT22;37879;52.986;6.282;2024-01-25T13:56:46;7.90;99.90
51825;DHT22;37879;52.986;6.282;2024-01-25T13:59:12;7.90;99.90
51825;DHT22;37879;52.986;6.282;2024-01-25T14:01:38;7.90;99.90
51825;DHT22;37879;52.986;6.282;2024-01-25T14:04:04;7.90;99.90
51825;DHT22;37879;52.986;6.282;2024-01-25T14:06:30;8.00;99.90
51825;DHT22;37879;52.986;6.282;2024-01-25T14:08:55;8.00;99.90
51825;DHT22;37879;52.986;6.282;2024-01-25T14:11:21;8.00;99.90
51825;DHT22;37879;52.986;6.282;2024-01-25T14:13:47;8.00;99.90
51825;DHT22;37879;52.986;6.282;2024-01-25T14:16:13;7.90;99.90
51825;DHT22;37879;52.986;6.282;2024-01-25T14:18:43;7.90;99.90
51825;DHT22;37879;52.986;6.282;2024-01-25T14:21:09;7.90;99.90
51825;DHT22;37879;52.986;6.282;2024-01-25T14:23:35;7.90;99.90
51825;DHT22;37879;52.986;6.282;2024-01-25T14:26:00;7.90;99.90
51825;DHT22;37879;52.986;6.282;2024-01-25T14:28:26;7.80;99.90
51825;DHT22;37879;52.986;6.282;2024-01-25T14:30:52;7.80;99.90
51825;DHT22;37879;52.986;6.282;2024-01-25T14:33:17;7.80;99.90
51825;DHT22;37879;52.986;6.282;2024-01-25T14:35:43;7.70;99.90
51825;DHT22;37879;52.986;6.282;2024-01-25T14:38:09;7.70;99.90
51825;DHT22;37879;52.986;6.282;2024-01-25T14:40:35;7.70;99.90
51825;DHT22;37879;52.986;6.282;2024-01-25T14:43:01;7.60;99.90
51825;DHT22;37879;52.986;6.282;2024-01-25T14:45:27;7.60;99.90
51825;DHT22;37879;52.986;6.282;2024-01-25T14:47:55;7.60;99.90
51825;DHT22;37879;52.986;6.282;2024-01-25T14:50:21;7.60;99.90
51825;DHT22;37879;52.986;6.282;2024-01-25T14:52:47;7.60;99.90
51825;DHT22;37879;52.986;6.282;2024-01-25T14:55:13;7.60;99.90
51825;DHT22;37879;52.986;6.282;2024-01-25T14:57:38;7.60;99.90
51825;DHT22;37879;52.986;6.282;2024-01-25T15:00:05;7.50;99.90
51825;DHT22;37879;52.986;6.282;2024-01-25T15:02:32;7.50;99.90
51825;DHT22;37879;52.986;6.282;2024-01-25T15:04:58;7.40;99.90
51825;DHT22;37879;52.986;6.282;2024-01-25T15:07:24;7.40;99.90
51825;DHT22;37879;52.986;6.282;2024-01-25T15:09:50;7.40;99.90
51825;DHT22;37879;52.986;6.282;2024-01-25T15:12:16;7.40;99.90
51825;DHT22;37879;52.986;6.282;2024-01-25T15:14:42;7.40;99.90
51825;DHT22;37879;52.986;6.282;2024-01-25T15:17:07;7.40;99.90
51825;DHT22;37879;52.986;6.282;2024-01-25T15:19:33;7.40;99.90
51825;DHT22;37879;52.986;6.282;2024-01-25T15:21:59;7.40;99.90
51825;DHT22;37879;52.986;6.282;2024-01-25T15:24:25;7.40;99.90
51825;DHT22;37879;52.986;6.282;2024-01-25T15:26:52;7.30;99.90
51825;DHT22;37879;52.986;6.282;2024-01-25T15:29:17;7.30;99.90
51825;DHT22;37879;52.986;6.282;2024-01-25T15:31:43;7.30;99.90
51825;DHT22;37879;52.986;6.282;2024-01-25T15:34:09;7.30;99.90
51825;DHT22;37879;52.986;6.282;2024-01-25T15:36:34;7.30;99.90
51825;DHT22;37879;52.986;6.282;2024-01-25T15:39:01;7.30;99.90
51825;DHT22;37879;52.986;6.282;2024-01-25T15:41:29;7.30;99.90
51825;DHT22;37879;52.986;6.282;2024-01-25T15:43:56;7.30;99.90